Valley Springs, Arkansas
Current Conditions -  °F | °C
As of 11:53 AM on Thursday 18 Dec 2014 (Local Time) from KHRO Reporting Station
Overcast Overcast  
Wind Chill: 33°   Ceiling: 600
Heat Index: 38°   Visibility: 10mi
Dew Point: 37°   Wind: 6mph
Humidity: 97%   Direction: 160°SSE
Pressure: 30.17"   Gusts: NA
Location:  36.16°N, 92.99°W
Report Text: KHRO 181753Z AUTO 16005KT 10SM OVC006 03/03 A3017 RMK AO2 SLP225 T00330028 10033 20006 58008
Loading
Personal Weather Stations






























Interactive Weather Map New forecast layout! Learn more

10-Day Weather Forecast

Advertisements
Track Severe Weather on mobile